Time;durP1;ratioP1;P1;durP2;ratioP2;P2;SDS_P1;SDS_P2;PMS_P1;PMS_P2;Temp;Humidity;BMP_temperature;BMP_pressure;BME280_temperature;BME280_humidity;BME280_pressure;Samples;Min_cycle;Max_cycle;Signal;HPM_P1;HPM_P2
2022/06/24 00:01:28;;;;;;;9.10;8.80;;;;;;;-141.02;100.00;84773.75;5113685;28;20275;-76
2022/06/24 00:03:56;;;;;;;8.55;8.35;;;;;;;-141.02;100.00;84526.94;5113262;28;20288;-76
2022/06/24 00:06:23;;;;;;;8.20;8.00;;;;;;;-141.02;100.00;84799.03;5113593;28;20230;-76
2022/06/24 00:08:52;;;;;;;8.18;7.97;;;;;;;-141.02;100.00;84797.09;5113420;28;20239;-76
2022/06/24 00:11:28;;;;;;;8.40;8.20;;;;;;;-141.02;100.00;84826.22;5113511;28;20189;-76
2022/06/24 00:14:07;;;;;;;8.35;8.15;;;;;;;-141.02;100.00;84837.91;5113118;28;20216;-76
2022/06/24 00:16:56;;;;;;;8.48;8.27;;;;;;;-141.02;100.00;84814.56;5113653;27;20193;-76
2022/06/24 00:19:24;;;;;;;9.23;8.93;;;;;;;-141.02;100.00;84767.94;5113326;28;20225;-75
2022/06/24 00:22:05;;;;;;;9.55;9.25;;;;;;;-141.02;100.00;84771.81;5113019;28;20287;-73
2022/06/24 00:24:35;;;;;;;9.40;9.10;;;;;;;-141.02;100.00;84793.19;5112985;28;20216;-77
2022/06/24 00:27:05;;;;;;;8.95;8.65;;;;;;;-141.02;100.00;84795.13;5113204;28;20198;-75
2022/06/24 00:29:34;;;;;;;8.75;8.52;;;;;;;-141.02;100.00;84795.13;5113256;28;20185;-75
2022/06/24 00:32:04;;;;;;;9.20;8.90;;;;;;;-141.02;100.00;84764.03;5112836;28;20240;-75
2022/06/24 00:34:31;;;;;;;9.23;8.93;;;;;;;-141.02;100.00;84756.25;5113086;27;20193;-75
2022/06/24 00:36:58;;;;;;;9.73;9.43;;;;;;;-141.02;100.00;84787.38;5112790;28;20215;-75
2022/06/24 00:39:35;;;;;;;9.20;8.90;;;;;;;-141.02;100.00;84816.53;5112590;28;20232;-74
2022/06/24 00:42:05;;;;;;;9.25;8.95;;;;;;;-141.02;100.00;84762.09;5113010;28;20257;-74
2022/06/24 00:44:44;;;;;;;9.10;8.80;;;;;;;-141.02;100.00;84808.75;5112926;28;20631;-75
2022/06/24 00:47:15;;;;;;;9.10;8.80;;;;;;;-141.02;100.00;84668.81;5112660;28;20196;-75
2022/06/24 00:49:43;;;;;;;9.40;9.10;;;;;;;-141.02;100.00;84806.81;5112618;28;20280;-75
2022/06/24 00:52:11;;;;;;;9.60;9.30;;;;;;;-141.02;100.00;84834.00;5112916;28;20589;-75
2022/06/24 00:54:39;;;;;;;9.05;8.75;;;;;;;-141.02;100.00;84853.44;5112060;28;20289;-75
2022/06/24 00:57:08;;;;;;;8.90;8.60;;;;;;;-141.02;100.00;84867.06;5112532;28;20312;-75
2022/06/24 00:59:37;;;;;;;8.90;8.60;;;;;;;-141.02;100.00;84872.88;5112466;28;20632;-75
2022/06/24 01:02:06;;;;;;;8.70;8.50;;;;;;;-141.02;100.00;84880.66;5112999;28;20189;-75
2022/06/24 01:04:34;;;;;;;9.00;8.70;;;;;;;-141.02;100.00;84876.78;5112394;28;20196;-76
2022/06/24 01:07:02;;;;;;;8.75;8.52;;;;;;;-141.02;100.00;84888.44;5112674;28;20250;-76
2022/06/24 01:09:29;;;;;;;9.15;8.85;;;;;;;-141.02;100.00;84835.94;5112727;28;20207;-75
2022/06/24 01:11:57;;;;;;;9.30;9.00;;;;;;;-141.02;100.00;84799.03;5112640;28;20223;-75
2022/06/24 01:14:25;;;;;;;10.02;9.73;;;;;;;-141.02;100.00;84795.13;5112360;28;20191;-77
2022/06/24 01:16:52;;;;;;;10.88;10.48;;;;;;;-141.02;100.00;84736.84;5112601;28;20281;-76
2022/06/24 01:19:19;;;;;;;11.48;11.07;;;;;;;-141.02;100.00;84732.94;5112216;28;20722;-76
2022/06/24 01:21:50;;;;;;;11.68;11.27;;;;;;;-141.02;100.00;84705.75;5112634;28;20651;-75
2022/06/24 01:24:19;;;;;;;12.55;12.15;;;;;;;-141.02;100.00;84674.63;5112246;28;20193;-76
2022/06/24 01:26:47;;;;;;;11.55;11.15;;;;;;;-141.02;100.00;84694.06;5112807;28;20262;-77
2022/06/24 01:29:15;;;;;;;10.90;10.60;;;;;;;-141.02;100.00;84694.06;5112476;28;20661;-76
2022/06/24 01:31:43;;;;;;;11.48;11.07;;;;;;;-141.02;100.00;84701.84;5112194;28;20205;-76
2022/06/24 01:34:11;;;;;;;11.32;10.93;;;;;;;-141.02;100.00;84711.56;5112194;28;20648;-76
2022/06/24 01:36:39;;;;;;;11.60;11.20;;;;;;;-141.02;100.00;84686.31;5112156;28;20659;-75
2022/06/24 01:39:08;;;;;;;11.65;11.25;;;;;;;-141.02;100.00;84705.75;5112411;28;20332;-75
2022/06/24 01:41:35;;;;;;;11.80;11.40;;;;;;;-141.02;100.00;84694.06;5112355;28;20272;-74
2022/06/24 01:44:02;;;;;;;11.90;11.50;;;;;;;-141.02;100.00;84655.19;5112660;28;20205;-74
2022/06/24 01:46:30;;;;;;;11.80;11.40;;;;;;;-141.02;100.00;84709.63;5112595;28;20225;-74
2022/06/24 01:48:57;;;;;;;10.88;10.57;;;;;;;-141.02;100.00;84678.53;5112020;28;20678;-74
2022/06/24 01:51:25;;;;;;;11.20;10.80;;;;;;;-141.02;100.00;84694.06;5112337;28;20220;-75
2022/06/24 01:53:53;;;;;;;10.40;10.10;;;;;;;-141.02;100.00;84709.63;5111979;28;20303;-75
2022/06/24 01:56:21;;;;;;;10.20;9.90;;;;;;;-141.02;100.00;84756.25;5111902;28;20225;-74
2022/06/24 01:58:48;;;;;;;9.50;9.20;;;;;;;-141.02;100.00;84795.13;5111854;28;20221;-76
2022/06/24 02:01:15;;;;;;;9.00;8.70;;;;;;;-141.02;100.00;84818.47;5112202;28;20189;-75
2022/06/24 02:03:43;;;;;;;8.27;8.07;;;;;;;-141.02;100.00;84869.00;5112179;28;20231;-76
2022/06/24 02:06:12;;;;;;;8.73;8.50;;;;;;;-141.02;100.00;84886.47;5114234;28;20728;-76
2022/06/24 02:08:40;;;;;;;8.30;8.10;;;;;;;-141.02;100.00;84931.19;5115571;28;20199;-75
2022/06/24 02:13:57;;;;;;;7.40;7.20;;;;;;;-141.02;100.00;84979.78;5115607;28;20666;-75
2022/06/24 02:16:25;;;;;;;7.10;6.90;;;;;;;-141.02;100.00;84993.38;5115477;28;20194;-75
2022/06/24 02:18:52;;;;;;;7.20;7.00;;;;;;;-141.02;100.00;84849.56;5115333;28;20264;-75
2022/06/24 02:21:20;;;;;;;7.80;7.60;;;;;;;-141.02;100.00;84997.28;5115642;28;20552;-75
2022/06/24 02:23:48;;;;;;;7.90;7.70;;;;;;;-141.02;100.00;84985.59;5115519;28;20623;-75
2022/06/24 02:26:15;;;;;;;7.53;7.32;;;;;;;-141.02;100.00;84997.28;5115512;28;20225;-75
2022/06/24 02:28:42;;;;;;;7.90;7.70;;;;;;;-141.02;100.00;85001.16;5115207;28;20236;-75
2022/06/24 02:31:11;;;;;;;8.10;7.90;;;;;;;-141.02;100.00;84985.59;5115434;28;20189;-75
2022/06/24 02:33:38;;;;;;;8.60;8.40;;;;;;;-141.02;100.00;84981.72;5115411;28;20193;-74
2022/06/24 02:36:06;;;;;;;8.60;8.40;;;;;;;-141.02;100.00;84845.66;5115057;28;20193;-75
2022/06/24 02:38:34;;;;;;;8.20;8.00;;;;;;;-141.02;100.00;84981.72;5114856;28;20260;-74
2022/06/24 02:41:01;;;;;;;8.00;7.80;;;;;;;-141.02;100.00;85016.72;5115263;28;20189;-74
2022/06/24 02:43:30;;;;;;;7.80;7.60;;;;;;;-141.02;100.00;85082.78;5115192;28;20193;-74
2022/06/24 02:46:00;;;;;;;7.80;7.60;;;;;;;-141.02;100.00;85086.69;5115226;28;20239;-75
2022/06/24 02:48:29;;;;;;;7.97;7.78;;;;;;;-141.02;100.00;85106.13;5114779;28;20235;-75
2022/06/24 02:50:57;;;;;;;8.00;7.80;;;;;;;-141.02;100.00;85098.34;5115370;28;20265;-75
2022/06/24 02:53:26;;;;;;;8.13;7.93;;;;;;;-141.02;100.00;85113.91;5115015;28;20232;-75
2022/06/24 02:55:54;;;;;;;7.70;7.50;;;;;;;-141.02;100.00;84995.31;5114678;28;20264;-75
2022/06/24 02:58:22;;;;;;;7.18;6.97;;;;;;;-141.02;100.00;84966.19;5114916;27;20217;-75
2022/06/24 03:00:49;;;;;;;7.35;7.15;;;;;;;-141.02;100.00;85090.56;5114836;28;20225;-75
2022/06/24 03:03:18;;;;;;;7.40;7.20;;;;;;;-141.02;100.00;85094.47;5114501;28;20221;-75
2022/06/24 03:05:47;;;;;;;7.00;6.80;;;;;;;-141.02;100.00;84886.47;5114734;28;20194;-75
2022/06/24 03:08:16;;;;;;;7.10;6.90;;;;;;;-141.02;100.00;85113.91;5114458;28;20228;-75
2022/06/24 03:10:44;;;;;;;7.10;6.90;;;;;;;-141.02;100.00;85098.34;5114951;28;20225;-75
2022/06/24 03:13:12;;;;;;;6.70;6.50;;;;;;;-141.02;100.00;85082.78;5114961;27;20193;-75
2022/06/24 03:15:39;;;;;;;6.70;6.50;;;;;;;-141.02;100.00;85084.75;5114532;28;20193;-75
2022/06/24 03:18:07;;;;;;;6.10;6.00;;;;;;;-141.02;100.00;85067.25;5113936;28;20197;-75
2022/06/24 03:20:34;;;;;;;6.20;6.10;;;;;;;-141.02;100.00;86358.09;5114180;28;20279;-75
2022/06/24 03:23:03;;;;;;;5.90;5.80;;;;;;;-141.02;100.00;85055.59;5114482;28;20201;-74
2022/06/24 03:25:30;;;;;;;5.80;5.70;;;;;;;-141.02;100.00;85034.19;5114456;28;20197;-75
2022/06/24 03:27:57;;;;;;;5.75;5.65;;;;;;;-141.02;100.00;85024.47;5114402;28;20189;-75
2022/06/24 03:30:24;;;;;;;6.20;6.10;;;;;;;-141.02;100.00;85008.94;5114489;27;20189;-75
2022/06/24 03:32:51;;;;;;;6.63;6.43;;;;;;;-141.02;100.00;84911.75;5114325;28;20197;-74
2022/06/24 03:35:18;;;;;;;6.72;6.53;;;;;;;-141.02;100.00;84709.63;5114192;28;20278;-74
2022/06/24 03:37:45;;;;;;;7.80;7.60;;;;;;;-141.02;100.00;84550.25;5114155;27;20197;-74
2022/06/24 03:40:14;;;;;;;11.63;11.23;;;;;;;-141.02;100.00;84270.41;5113990;28;20229;-74
2022/06/24 03:42:41;;;;;;;15.65;14.85;;;;;;;-141.02;100.00;84089.69;5114044;28;20196;-74
2022/06/24 03:45:08;;;;;;;18.50;17.40;;;;;;;-141.02;100.00;84021.69;5114318;28;20699;-75
2022/06/24 03:47:35;;;;;;;19.58;18.27;;;;;;;-141.02;100.00;83961.47;5113953;28;20622;-74
2022/06/24 03:50:03;;;;;;;19.45;18.25;;;;;;;-141.02;100.00;83912.88;5113667;28;20205;-73
2022/06/24 03:52:30;;;;;;;18.83;17.83;;;;;;;-141.02;100.00;83932.31;5113550;28;20229;-72
2022/06/24 03:54:57;;;;;;;17.35;16.55;;;;;;;-141.02;100.00;83912.88;5113892;27;20232;-72
2022/06/24 03:57:25;;;;;;;16.13;15.52;;;;;;;-141.02;100.00;83874.03;5113284;27;20236;-73
2022/06/24 03:59:52;;;;;;;16.10;15.50;;;;;;;-141.02;100.00;83827.38;5113345;28;20269;-72
2022/06/24 04:02:21;;;;;;;16.50;15.90;;;;;;;-141.02;100.00;83769.09;5113403;28;20246;-72
2022/06/24 04:04:48;;;;;;;15.32;14.77;;;;;;;-141.02;100.00;83796.31;5113686;28;20276;-72
2022/06/24 04:07:15;;;;;;;14.68;14.18;;;;;;;-141.02;100.00;83780.75;5113557;27;20193;-73
2022/06/24 04:09:42;;;;;;;16.92;16.23;;;;;;;-141.02;100.00;83716.63;5113236;28;20284;-73
2022/06/24 04:12:10;;;;;;;16.85;16.15;;;;;;;-141.02;100.00;83671.94;5113389;28;20225;-73
2022/06/24 04:17:22;;;;;;;18.38;17.58;;;;;;;-141.02;80.75;83300.88;5113558;28;20184;-73
2022/06/24 04:19:52;;;;;;;18.08;17.27;;;;;;;-141.02;81.62;83322.25;5113249;28;20221;-73
2022/06/24 04:22:19;;;;;;;17.98;17.17;;;;;;;-141.02;78.65;83252.31;5113329;28;20197;-73
2022/06/24 04:24:46;;;;;;;18.70;17.90;;;;;;;-141.02;76.57;83178.50;5113595;28;20197;-72
2022/06/24 04:27:14;;;;;;;16.60;15.90;;;;;;;-141.02;91.55;83390.25;5114225;28;20200;-73
2022/06/24 04:29:42;;;;;;;16.63;15.93;;;;;;;-141.02;94.12;83380.53;5112399;28;20239;-73
2022/06/24 04:32:10;;;;;;;16.15;15.45;;;;;;;-141.02;94.58;83446.59;5112849;28;20655;-72
2022/06/24 04:34:38;;;;;;;17.50;16.80;;;;;;;-141.02;98.71;83497.09;5113118;28;20193;-72
2022/06/24 04:37:06;;;;;;;16.73;16.02;;;;;;;-141.02;100.00;83489.31;5113098;28;20556;-73
2022/06/24 04:39:33;;;;;;;16.13;15.52;;;;;;;-141.02;100.00;83522.34;5112975;28;20225;-73
2022/06/24 04:42:00;;;;;;;14.93;14.43;;;;;;;-141.02;100.00;83500.97;5113052;28;20242;-73
2022/06/24 04:44:27;;;;;;;15.48;14.88;;;;;;;-141.02;99.89;83477.66;5112656;28;20197;-73
2022/06/24 04:46:56;;;;;;;16.02;15.43;;;;;;;-141.02;89.82;83314.47;5112970;28;20220;-74
2022/06/24 04:49:23;;;;;;;17.88;17.17;;;;;;;-141.02;81.90;83170.72;5112589;28;20189;-73
2022/06/24 04:51:50;;;;;;;18.63;17.83;;;;;;;-141.02;81.96;83003.66;5113396;28;20189;-73
2022/06/24 04:54:17;;;;;;;19.35;18.55;;;;;;;-141.02;77.04;83124.09;5113045;28;20278;-73
2022/06/24 04:56:44;;;;;;;18.75;17.95;;;;;;;-141.02;74.71;83077.47;5112466;28;20268;-72
2022/06/24 04:59:12;;;;;;;16.92;16.23;;;;;;;-141.02;82.72;83197.91;5112757;28;20264;-72
2022/06/24 05:01:39;;;;;;;20.10;19.13;;;;;;;-141.02;87.73;83291.16;5112438;28;20705;-72
2022/06/24 05:04:07;;;;;;;16.13;15.52;;;;;;;-141.02;96.63;83454.34;5112794;28;20197;-72
2022/06/24 05:06:34;;;;;;;14.73;14.23;;;;;;;-141.02;100.00;83559.25;5112735;28;20237;-72
2022/06/24 05:09:01;;;;;;;13.90;13.40;;;;;;;-141.02;100.00;83555.38;5112351;28;20778;-72
2022/06/24 05:11:29;;;;;;;12.50;12.10;;;;;;;-141.02;100.00;83520.41;5112395;28;20189;-72
2022/06/24 05:13:55;;;;;;;13.10;12.70;;;;;;;-141.02;100.00;83547.59;5112662;28;20248;-73
2022/06/24 05:16:22;;;;;;;14.18;13.68;;;;;;;-141.02;100.00;83469.91;5112695;28;20239;-72
2022/06/24 05:18:49;;;;;;;14.00;13.50;;;;;;;-141.02;100.00;83543.72;5112267;28;20239;-73
2022/06/24 05:21:18;;;;;;;14.25;13.75;;;;;;;-141.02;100.00;83570.91;5112598;28;20240;-73
2022/06/24 05:23:45;;;;;;;13.43;13.02;;;;;;;-141.02;100.00;83636.97;5112277;28;20582;-72
2022/06/24 05:26:12;;;;;;;13.45;13.05;;;;;;;-141.02;100.00;83598.13;5112533;28;20276;-72
2022/06/24 05:28:39;;;;;;;13.07;12.68;;;;;;;-141.02;100.00;83675.84;5112586;28;20224;-72
2022/06/24 05:31:06;;;;;;;12.18;11.77;;;;;;;-141.02;100.00;83609.78;5112495;28;20651;-72
2022/06/24 05:33:33;;;;;;;12.73;12.32;;;;;;;-141.02;100.00;83582.56;5112534;28;20293;-71
2022/06/24 05:36:00;;;;;;;13.18;12.77;;;;;;;-141.02;100.00;83508.75;5112476;28;20227;-73
2022/06/24 05:38:29;;;;;;;14.93;14.43;;;;;;;-141.02;100.00;83547.59;5112416;28;20189;-71
2022/06/24 05:40:56;;;;;;;14.65;14.15;;;;;;;-141.02;100.00;83549.56;5115545;28;20224;-72
2022/06/24 05:43:23;;;;;;;14.00;13.50;;;;;;;-141.02;100.00;83559.25;5116408;28;20229;-72
2022/06/24 05:45:50;;;;;;;14.35;13.85;;;;;;;-141.02;100.00;83602.00;5116062;28;20620;-72
2022/06/24 05:48:17;;;;;;;13.30;12.90;;;;;;;-141.02;100.00;83574.81;5116361;28;20189;-72
2022/06/24 05:50:44;;;;;;;14.77;14.27;;;;;;;-141.02;100.00;83584.53;5116038;28;20259;-72
2022/06/24 05:56:02;;;;;;;15.70;15.10;;;;;;;-141.02;100.00;83602.00;5116215;28;20235;-71
2022/06/24 05:58:30;;;;;;;14.20;13.70;;;;;;;-141.02;100.00;83623.38;5115794;28;20190;-71
2022/06/24 06:00:57;;;;;;;14.27;13.77;;;;;;;-141.02;100.00;83613.66;5115697;27;20572;-71
2022/06/24 06:03:25;;;;;;;17.33;16.52;;;;;;;-141.02;100.00;83524.28;5116553;28;20279;-71
2022/06/24 06:05:53;;;;;;;16.75;16.15;;;;;;;-141.02;100.00;83485.44;5115986;28;20229;-71
2022/06/24 06:08:20;;;;;;;16.27;15.68;;;;;;;-141.02;100.00;83528.19;5115659;28;20287;-72
2022/06/24 06:10:47;;;;;;;16.27;15.68;;;;;;;-141.02;100.00;83514.59;5115847;28;20228;-70
2022/06/24 06:13:16;;;;;;;16.52;15.93;;;;;;;-141.02;100.00;83473.78;5115574;28;20232;-74
2022/06/24 06:15:43;;;;;;;15.80;15.20;;;;;;;-141.02;100.00;83516.53;5115492;28;20246;-72
2022/06/24 06:18:10;;;;;;;16.00;15.40;;;;;;;-141.02;100.00;83489.31;5115466;28;20663;-71
2022/06/24 06:20:38;;;;;;;15.00;14.50;;;;;;;-141.02;100.00;83508.75;5115649;28;20286;-72
2022/06/24 06:23:05;;;;;;;15.10;14.60;;;;;;;-141.02;100.00;83520.41;5115623;28;20193;-71
2022/06/24 06:25:33;;;;;;;14.95;14.45;;;;;;;-141.02;100.00;83516.53;5115624;28;20192;-72
2022/06/24 06:28:01;;;;;;;15.98;15.38;;;;;;;-141.02;100.00;83495.16;5115572;28;20197;-71
2022/06/24 06:30:30;;;;;;;15.30;14.80;;;;;;;-141.02;100.00;83469.91;5115178;28;20572;-70
2022/06/24 06:32:57;;;;;;;15.85;15.25;;;;;;;-141.02;100.00;83489.31;5115445;28;20201;-72
2022/06/24 06:35:24;;;;;;;16.27;15.68;;;;;;;-141.02;100.00;83473.78;5115296;28;20201;-71
2022/06/24 06:37:51;;;;;;;17.00;16.30;;;;;;;-141.02;100.00;83431.03;5115317;28;20229;-72
2022/06/24 06:40:18;;;;;;;16.58;15.88;;;;;;;-141.02;100.00;83444.63;5114941;28;20731;-70
2022/06/24 06:42:45;;;;;;;16.75;16.05;;;;;;;-141.02;100.00;83427.16;5114953;28;20228;-71
2022/06/24 06:45:12;;;;;;;16.25;15.65;;;;;;;-141.02;100.00;83431.03;5114954;28;20671;-72
2022/06/24 06:47:41;;;;;;;16.80;16.10;;;;;;;-141.02;100.00;83392.19;5115192;28;20617;-71
2022/06/24 06:50:09;;;;;;;16.52;15.82;;;;;;;-141.02;100.00;83403.84;5115172;28;20224;-71
2022/06/24 06:52:36;;;;;;;16.25;15.55;;;;;;;-141.02;100.00;83423.28;5114039;28;20646;-71
2022/06/24 06:55:03;;;;;;;16.63;15.93;;;;;;;-141.02;100.00;83405.78;5115078;28;20275;-72
2022/06/24 06:57:30;;;;;;;16.83;16.05;;;;;;;-141.02;100.00;83380.53;5114767;28;20229;-72
2022/06/24 06:59:57;;;;;;;16.63;15.93;;;;;;;-141.02;100.00;83374.69;5114561;28;20221;-71
2022/06/24 07:02:24;;;;;;;16.75;16.05;;;;;;;-141.02;99.89;83384.41;5114618;28;20239;-71
2022/06/24 07:04:52;;;;;;;16.48;15.77;;;;;;;-141.02;100.00;83407.72;5114837;28;20231;-71
2022/06/24 07:07:19;;;;;;;16.77;16.08;;;;;;;-141.02;97.93;83316.41;5115134;28;20193;-71
2022/06/24 07:09:47;;;;;;;17.10;16.30;;;;;;;-141.02;96.61;83330.03;5114965;28;20287;-71
2022/06/24 07:12:14;;;;;;;16.83;16.13;;;;;;;-141.02;99.65;83413.56;5114481;28;20209;-72
2022/06/24 07:14:42;;;;;;;16.98;16.17;;;;;;;-141.02;99.09;83411.63;5114396;28;20193;-72
2022/06/24 07:17:09;;;;;;;16.85;16.15;;;;;;;-141.02;97.71;83310.59;5114596;28;20276;-71
2022/06/24 07:19:36;;;;;;;16.70;16.00;;;;;;;-141.02;96.36;83341.69;5114249;28;20319;-72
2022/06/24 07:22:05;;;;;;;16.40;15.70;;;;;;;-141.02;94.20;83302.81;5114516;28;20192;-70
2022/06/24 07:24:32;;;;;;;17.25;16.35;;;;;;;-141.02;93.74;83297.00;5114492;28;20232;-71
2022/06/24 07:27:02;;;;;;;17.27;16.48;;;;;;;-141.02;93.65;83298.94;5114415;28;20197;-72
2022/06/24 07:29:29;;;;;;;16.85;16.05;;;;;;;-141.02;92.92;83246.47;5114377;28;20239;-72
2022/06/24 07:31:56;;;;;;;17.52;16.73;;;;;;;-141.02;89.24;83236.78;5114309;28;20197;-71
2022/06/24 07:34:23;;;;;;;17.27;16.48;;;;;;;-141.02;90.65;83328.06;5114272;28;20220;-73
2022/06/24 07:36:50;;;;;;;17.30;16.48;;;;;;;-141.02;90.23;83232.88;5114233;28;20224;-71
2022/06/24 07:39:18;;;;;;;18.00;17.10;;;;;;;-141.02;89.69;83244.53;5114081;28;20248;-71
2022/06/24 07:41:45;;;;;;;17.00;16.20;;;;;;;-141.02;88.54;83209.56;5114131;28;20271;-71
2022/06/24 07:44:12;;;;;;;17.13;16.33;;;;;;;-141.02;90.98;83197.91;5113737;28;20201;-71
2022/06/24 07:46:39;;;;;;;17.40;16.60;;;;;;;-141.02;86.54;83124.09;5114041;28;20273;-72
2022/06/24 07:49:06;;;;;;;17.50;16.60;;;;;;;-141.02;84.82;83058.06;5113989;28;20295;-71
2022/06/24 07:51:33;;;;;;;17.88;16.98;;;;;;;-141.02;79.15;83077.47;5114121;28;20189;-72
2022/06/24 07:54:00;;;;;;;17.98;17.08;;;;;;;-141.02;81.16;83042.50;5113567;28;20193;-71
2022/06/24 07:59:13;;;;;;;17.95;17.05;;;;;;;-141.02;79.77;83131.88;5113630;28;20211;-70
2022/06/24 08:01:40;;;;;;;17.58;16.77;;;;;;;-141.02;81.65;83186.25;5113630;28;20698;-69
2022/06/24 08:04:08;;;;;;;17.70;16.80;;;;;;;-141.02;83.74;83170.72;5112673;28;20193;-70
2022/06/24 08:06:36;;;;;;;18.02;17.13;;;;;;;-141.02;81.76;83131.88;5113312;28;20289;-71
2022/06/24 08:09:03;;;;;;;17.70;16.80;;;;;;;-141.02;79.78;83069.69;5113271;28;20608;-71
2022/06/24 08:11:32;;;;;;;17.50;16.60;;;;;;;-141.02;81.70;83067.75;5113569;27;20258;-71
2022/06/24 08:13:59;;;;;;;17.63;16.73;;;;;;;-141.02;76.90;82980.34;5113732;28;20251;-71
2022/06/24 08:16:26;;;;;;;18.45;17.55;;;;;;;-141.02;71.90;82883.22;5113471;28;20296;-71
2022/06/24 08:18:54;;;;;;;18.00;17.10;;;;;;;-141.02;77.79;82896.81;5113383;28;20224;-72
2022/06/24 08:21:22;;;;;;;18.60;17.60;;;;;;;-141.02;71.96;82865.75;5113323;28;20575;-71
2022/06/24 08:23:49;;;;;;;18.85;17.85;;;;;;;-141.02;69.17;82789.97;5113049;28;20232;-71
2022/06/24 08:26:17;;;;;;;18.55;17.55;;;;;;;-141.02;66.21;82712.28;5113231;28;20299;-72
2022/06/24 08:28:45;;;;;;;18.75;17.75;;;;;;;-141.02;68.01;82626.81;5113274;28;20193;-71
2022/06/24 08:31:13;;;;;;;19.00;18.00;;;;;;;-141.02;65.18;82634.59;5113197;28;20250;-71
2022/06/24 08:33:40;;;;;;;19.05;18.05;;;;;;;-141.02;65.55;82669.56;5112949;27;20628;-70
2022/06/24 08:36:07;;;;;;;19.20;18.20;;;;;;;-141.02;69.34;82723.94;5112848;28;20197;-72
2022/06/24 08:38:34;;;;;;;19.08;18.08;;;;;;;-141.02;66.32;82688.97;5113136;28;20189;-71
2022/06/24 08:41:03;;;;;;;19.00;18.00;;;;;;;-141.02;66.33;82677.31;5113022;28;20311;-71
2022/06/24 08:43:32;;;;;;;18.75;17.75;;;;;;;-141.02;66.44;82611.28;5113040;28;20235;-72
2022/06/24 08:46:01;;;;;;;18.88;17.88;;;;;;;-141.02;67.32;82650.13;5112689;28;20726;-71
2022/06/24 08:48:29;;;;;;;18.92;17.88;;;;;;;-141.02;63.34;82545.25;5112938;28;20280;-74
2022/06/24 08:50:57;;;;;;;18.63;17.63;;;;;;;-141.02;63.77;82615.16;5112618;28;20193;-71
2022/06/24 08:53:27;;;;;;;19.65;18.55;;;;;;;-141.02;63.53;82681.22;5112590;28;20659;-71
2022/06/24 08:55:54;;;;;;;19.15;18.05;;;;;;;-141.02;63.98;82663.72;5112834;28;20228;-71
2022/06/24 08:58:22;;;;;;;19.00;17.90;;;;;;;-141.02;65.35;82716.16;5113203;28;20271;-72
2022/06/24 09:00:49;;;;;;;18.33;17.33;;;;;;;-141.02;65.51;82619.06;5112429;28;20672;-72
2022/06/24 09:03:18;;;;;;;18.63;17.52;;;;;;;-141.02;67.29;82758.91;5112801;28;20621;-72
2022/06/24 09:05:45;;;;;;;18.45;17.38;;;;;;;-141.02;69.70;82887.09;5112457;28;20193;-72
2022/06/24 09:08:13;;;;;;;18.25;17.25;;;;;;;-141.02;75.05;82992.00;5113281;28;20197;-71
2022/06/24 09:10:41;;;;;;;18.30;17.30;;;;;;;-141.02;75.54;82992.00;5112705;28;20651;-73
2022/06/24 09:13:18;;;;;;;17.90;16.90;;;;;;;-141.02;78.26;82957.03;5112709;28;20193;-73
2022/06/24 09:15:52;;;;;;;18.25;17.25;;;;;;;-141.02;76.86;82918.19;5116097;28;20181;-72
2022/06/24 09:18:23;;;;;;;18.25;17.25;;;;;;;-141.02;73.77;82867.69;5116988;28;20189;-72
2022/06/24 09:20:51;;;;;;;18.45;17.45;;;;;;;-141.02;72.93;82856.03;5116522;28;20258;-72
2022/06/24 09:23:18;;;;;;;19.00;17.90;;;;;;;-141.02;70.54;82782.22;5116852;28;20225;-72
2022/06/24 09:25:48;;;;;;;19.67;18.58;;;;;;;-141.02;69.61;82661.78;5116494;28;20283;-73
2022/06/24 09:28:22;;;;;;;19.35;18.25;;;;;;;-141.02;65.05;82574.38;5116403;28;20662;-71
2022/06/24 09:30:49;;;;;;;19.25;18.15;;;;;;;-141.02;64.44;82521.94;5116456;28;20271;-72
2022/06/24 09:33:18;;;;;;;19.38;18.27;;;;;;;-141.02;63.18;82556.91;5116330;28;20193;-73
2022/06/24 09:35:46;;;;;;;19.52;18.42;;;;;;;-141.02;61.46;82436.50;5116247;28;20591;-74
2022/06/24 09:38:14;;;;;;;19.25;18.15;;;;;;;-141.02;61.46;82362.69;5116767;28;20228;-73
2022/06/24 09:40:42;;;;;;;19.27;18.17;;;;;;;-141.02;62.51;82354.91;5116146;28;20232;-72
2022/06/24 09:43:10;;;;;;;19.20;18.10;;;;;;;-141.02;58.45;82304.41;5116478;28;20560;-76
2022/06/24 09:45:46;;;;;;;19.83;18.63;;;;;;;-141.02;58.72;82277.22;5116085;28;20197;-76
2022/06/24 09:48:13;;;;;;;19.42;18.23;;;;;;;-141.02;61.42;82366.56;5116070;28;20196;-72
2022/06/24 09:50:41;;;;;;;19.67;18.48;;;;;;;-141.02;59.13;82296.66;5116586;28;20196;-73
2022/06/24 09:53:10;;;;;;;20.23;18.92;;;;;;;-141.02;57.39;82226.72;5115988;28;20203;-72
2022/06/24 09:55:38;;;;;;;20.13;18.83;;;;;;;-141.02;56.62;82129.63;5116675;28;20298;-73
2022/06/24 09:58:05;;;;;;;21.10;19.80;;;;;;;-141.02;58.78;82195.66;5115946;28;20185;-71
2022/06/24 10:00:41;;;;;;;20.38;19.08;;;;;;;-141.02;56.30;82141.28;5115993;28;20702;-72
2022/06/24 10:03:11;;;;;;;20.15;18.95;;;;;;;-141.02;59.89;82335.50;5116129;28;20579;-73
2022/06/24 10:05:42;;;;;;;19.85;18.55;;;;;;;-141.02;60.36;82401.53;5115659;28;20190;-74
2022/06/24 10:08:16;;;;;;;20.10;18.80;;;;;;;-141.02;59.12;82253.91;5115694;28;20181;-72
2022/06/24 10:10:47;;;;;;;19.98;18.77;;;;;;;-141.02;57.64;82226.72;5115616;27;20235;-73
2022/06/24 10:13:25;;;;;;;20.25;18.95;;;;;;;-141.02;57.20;82207.31;5115938;28;20238;-72
2022/06/24 10:15:53;;;;;;;19.88;18.60;;;;;;;-141.02;57.51;82182.06;5116354;28;20281;-72
2022/06/24 10:18:27;;;;;;;20.23;18.92;;;;;;;-141.02;57.11;82184.00;5115804;28;20189;-72
2022/06/24 10:20:58;;;;;;;20.08;18.77;;;;;;;-141.02;57.61;82269.47;5115361;28;20619;-72
2022/06/24 10:23:45;;;;;;;20.70;19.40;;;;;;;-141.02;59.36;82378.22;5115414;28;20189;-72
2022/06/24 10:26:24;;;;;;;20.05;18.75;;;;;;;-141.02;59.89;82417.06;5114190;28;20186;-72
2022/06/24 10:29:19;;;;;;;20.35;19.05;;;;;;;-141.02;63.39;82514.16;5115346;28;20670;-71
2022/06/24 10:32:00;;;;;;;19.73;18.63;;;;;;;-141.02;62.05;82506.41;5115547;28;20190;-72
2022/06/24 10:34:34;;;;;;;20.10;18.90;;;;;;;-141.02;63.04;82498.63;5115746;28;20268;-72
2022/06/24 10:37:03;;;;;;;20.40;19.10;;;;;;;-141.02;62.23;82358.78;5115496;28;20196;-77
2022/06/24 10:39:33;;;;;;;20.65;19.35;;;;;;;-141.02;57.03;82226.72;5115075;28;20274;-74
2022/06/24 10:42:01;;;;;;;21.05;19.65;;;;;;;-141.02;57.78;82234.50;5114934;28;20278;-72
2022/06/24 10:44:30;;;;;;;20.70;19.40;;;;;;;-141.02;58.25;82218.97;5115208;28;20276;-74
2022/06/24 10:47:39;;;;;;;21.10;19.75;;;;;;;-141.02;56.20;82187.88;5114929;28;20730;-76
2022/06/24 10:50:18;;;;;;;20.92;19.60;;;;;;;-141.02;57.22;82187.88;5104308;28;20641;-72
2022/06/24 10:53:00;;;;;;;21.48;20.08;;;;;;;-141.02;54.50;82063.59;5115512;28;20223;-76
2022/06/24 10:55:35;;;;;;;21.52;20.13;;;;;;;-141.02;55.44;82117.97;5114564;28;20250;-75
2022/06/24 10:58:04;;;;;;;21.65;20.25;;;;;;;-141.02;55.11;82083.03;5114786;28;20239;-76
2022/06/24 11:00:51;;;;;;;21.48;20.08;;;;;;;-141.02;54.18;82009.22;5114867;27;20271;-74
2022/06/24 11:03:25;;;;;;;22.45;20.90;;;;;;;-141.02;55.01;82117.97;5114988;28;20268;-72
2022/06/24 11:05:52;;;;;;;21.85;20.35;;;;;;;-141.02;56.47;82242.28;5114587;28;20246;-72
2022/06/24 11:08:20;;;;;;;22.25;20.75;;;;;;;-141.02;58.25;82253.91;5114552;28;20659;-72
2022/06/24 11:10:50;;;;;;;21.33;19.90;;;;;;;-141.02;59.89;82393.75;5114758;28;20201;-71
2022/06/24 11:13:18;;;;;;;20.58;19.27;;;;;;;-141.02;60.86;82376.28;5114464;28;20246;-73
2022/06/24 11:15:49;;;;;;;21.25;19.85;;;;;;;-141.02;58.86;82191.78;5114627;28;20189;-73
2022/06/24 11:18:18;;;;;;;20.88;19.58;;;;;;;-141.02;57.71;82156.81;5114382;28;20600;-74
2022/06/24 11:20:49;;;;;;;20.98;19.58;;;;;;;-141.02;56.64;82152.94;5114194;28;20229;-72